»·PEaware :: JNY60 KPHX-KLXV

JNY60 :: KPHX-KLXV

FLIGHT INFORMATION

Flight Status: Arrived
Operator: Unknown
More flights by this operator :: More flights under this callsign
Pilot: Max W. (2591)
Aircraft: BOEING 727-200
(B722)
More flights by this aircraft type
Origin: KPHX Phoenix Sky Harbor Intl
United States
Destination: KLXV Lake Co
United States
More flights between these airports :: More routes between these airports
Route: PXR J44 INW HBU
File this flight plan on PilotEdge
Remarks: PART 135 PILOT COMPANY WITH TERRIBLE ROUTING. EVENING
Altitude:
(Current/Filed)
33,000ft
Speed:
(Current/Filed)
500kts
Departed: 02-Oct-19 02:48 PM
Arrived: 02-Oct-19 03:49 PM
Distance/Time
Traveled:
443nm/1:01
Distance/Time
To Go:
Arrived

Flight Plot

Page will automatically refresh every two minutes.

Flight plan parsing failed; only flown route is shown


Map Options




Map Legend


Flown Route
Filed Route
Departure Airport
Arrival Airport
Navaid (VOR, NDB)
Fix

Horizontal Profiles

Position Reports

Time Latitude Longitude Heading Altitude Ground
Speed
02-Oct-19 14:33 33.426699 -112.019575 270 1121ft 0kts
02-Oct-19 14:34 33.426699 -112.019575 270 1121ft 0kts
02-Oct-19 14:35 33.426699 -112.019575 270 1121ft 0kts
02-Oct-19 14:36 33.426699 -112.019575 270 1121ft 0kts
02-Oct-19 14:37 33.426699 -112.019575 270 1121ft 0kts
02-Oct-19 14:38 33.426699 -112.019575 270 1121ft 0kts
02-Oct-19 14:39 33.426699 -112.019575 270 1121ft 0kts
02-Oct-19 14:40 33.426699 -112.019575 270 1121ft 0kts
02-Oct-19 14:41 33.426699 -112.019575 270 1121ft 0kts
02-Oct-19 14:42 33.426699 -112.019575 270 1121ft 0kts
02-Oct-19 14:43 33.427051 -112.020824 307 1121ft 11kts
02-Oct-19 14:44 33.427762 -112.024040 273 1121ft 16kts
02-Oct-19 14:45 33.427743 -112.026268 274 1121ft 0kts
02-Oct-19 14:46 33.428732 -112.026805 50 1121ft 10kts
02-Oct-19 14:47 33.428811 -111.997589 90 1652ft 191kts
02-Oct-19 14:48 33.427790 -111.929611 90 5359ft 240kts
02-Oct-19 14:49 33.427723 -111.845033 82 9609ft 263kts
02-Oct-19 14:50 33.475849 -111.785015 15 12641ft 271kts
02-Oct-19 14:51 33.556593 -111.761594 9 14001ft 348kts
02-Oct-19 14:52 33.656730 -111.735002 9 16635ft 379kts
02-Oct-19 14:53 33.760998 -111.702419 26 19163ft 403kts
02-Oct-19 14:54 33.862611 -111.641815 15 21093ft 424kts
02-Oct-19 14:55 33.974009 -111.577091 20 23350ft 435kts
02-Oct-19 14:56 34.090300 -111.532056 32 24940ft 456kts
02-Oct-19 14:57 34.194955 -111.449424 29 26446ft 468kts
02-Oct-19 14:58 34.307119 -111.365840 29 27865ft 480kts
02-Oct-19 14:59 34.418464 -111.280863 30 29063ft 491kts
02-Oct-19 15:00 34.535580 -111.193162 30 30176ft 502kts
02-Oct-19 15:01 34.655193 -111.103068 30 31199ft 511kts
02-Oct-19 15:02 34.776749 -111.011268 30 32103ft 520kts
02-Oct-19 15:03 34.900192 -110.917689 31 32933ft 528kts
02-Oct-19 15:04 35.026132 -110.821830 30 33390ft 544kts
02-Oct-19 15:05 35.153073 -110.725304 30 33147ft 569kts
02-Oct-19 15:06 35.289635 -110.624536 28 33145ft 575kts
02-Oct-19 15:07 35.426710 -110.525273 28 33151ft 572kts
02-Oct-19 15:08 35.555562 -110.414119 45 33163ft 569kts
02-Oct-19 15:09 35.668953 -110.286259 42 33145ft 569kts
02-Oct-19 15:10 35.780103 -110.162373 42 33145ft 570kts
02-Oct-19 15:11 35.897385 -110.031754 42 33190ft 571kts
02-Oct-19 15:12 36.015314 -109.899862 42 33246ft 571kts
02-Oct-19 15:13 36.127899 -109.774325 40 33233ft 573kts
02-Oct-19 15:14 36.246268 -109.642854 42 33236ft 573kts
02-Oct-19 15:15 36.363839 -109.510063 42 33241ft 573kts
02-Oct-19 15:16 36.481322 -109.376327 42 33243ft 574kts
02-Oct-19 15:17 36.596143 -109.244089 42 33238ft 574kts
02-Oct-19 15:18 36.713543 -109.109476 43 33227ft 575kts
02-Oct-19 15:19 36.831012 -108.973881 43 33224ft 578kts
02-Oct-19 15:20 36.948919 -108.837240 43 33227ft 582kts
02-Oct-19 15:21 37.067872 -108.698643 42 33231ft 585kts
02-Oct-19 15:22 37.182514 -108.567272 41 33219ft 586kts
02-Oct-19 15:23 37.301640 -108.426930 41 33223ft 587kts
02-Oct-19 15:24 37.414118 -108.293081 43 33213ft 588kts
02-Oct-19 15:25 37.533039 -108.151915 42 33277ft 587kts
02-Oct-19 15:26 37.651498 -108.010889 42 33339ft 586kts
02-Oct-19 15:27 37.769748 -107.869347 42 33343ft 588kts
02-Oct-19 15:29 37.881375 -107.735118 42 32487ft 602kts
02-Oct-19 15:30 38.000145 -107.591864 42 30351ft 576kts
02-Oct-19 15:31 38.107819 -107.461061 41 28172ft 559kts
02-Oct-19 15:32 38.209886 -107.338422 43 25984ft 545kts
02-Oct-19 15:33 38.317763 -107.204808 42 24242ft 534kts
02-Oct-19 15:34 38.434762 -107.075852 30 21890ft 569kts
02-Oct-19 15:35 38.563183 -106.970122 30 18477ft 532kts
02-Oct-19 15:36 38.680600 -106.872521 30 15904ft 427kts
02-Oct-19 15:37 38.755608 -106.807190 30 15930ft 254kts
02-Oct-19 15:38 38.808662 -106.758315 30 15920ft 224kts
02-Oct-19 15:39 38.861874 -106.709247 30 15952ft 251kts
02-Oct-19 15:40 38.925197 -106.651889 30 15955ft 295kts
02-Oct-19 15:41 38.985705 -106.594393 30 15959ft 260kts
02-Oct-19 15:42 39.048790 -106.533825 30 16007ft 315kts
02-Oct-19 15:43 39.121154 -106.466766 30 15970ft 335kts
02-Oct-19 15:44 39.184356 -106.403035 36 14990ft 259kts
02-Oct-19 15:45 39.208283 -106.339413 148 12233ft 204kts
02-Oct-19 15:45 39.171206 -106.347094 212 11164ft 155kts
02-Oct-19 15:47 39.160173 -106.315752 27 10778ft 160kts
02-Oct-19 15:48 39.198913 -106.311941 339 10221ft 138kts
02-Oct-19 15:48 39.221830 -106.316884 9 9906ft 19kts
02-Oct-19 15:49 39.223558 -106.316254 346 9906ft 0kts

Navigation Log

Ident Type
Flight plan parsing failed, navigation log unavailable